sensor_id;sensor_type;location;lat;lon;timestamp;temperature;humidity
4431;DHT22;2228;48.140;11.488;2022-10-31T00:00:07;10.10;99.90
4431;DHT22;2228;48.140;11.488;2022-10-31T00:02:34;10.10;99.90
4431;DHT22;2228;48.140;11.488;2022-10-31T00:05:01;10.10;99.90
4431;DHT22;2228;48.140;11.488;2022-10-31T00:07:28;10.10;99.90
4431;DHT22;2228;48.140;11.488;2022-10-31T00:09:56;10.10;99.90
4431;DHT22;2228;48.140;11.488;2022-10-31T00:12:23;10.00;99.90
4431;DHT22;2228;48.140;11.488;2022-10-31T00:14:50;9.90;99.90
4431;DHT22;2228;48.140;11.488;2022-10-31T00:17:17;9.90;99.90
4431;DHT22;2228;48.140;11.488;2022-10-31T00:19:44;9.90;99.90
4431;DHT22;2228;48.140;11.488;2022-10-31T00:22:10;9.90;99.90
4431;DHT22;2228;48.140;11.488;2022-10-31T00:24:37;9.90;99.90
4431;DHT22;2228;48.140;11.488;2022-10-31T00:27:05;9.80;99.90
4431;DHT22;2228;48.140;11.488;2022-10-31T00:29:32;9.70;1.00
4431;DHT22;2228;48.140;11.488;2022-10-31T00:31:59;9.60;1.00
4431;DHT22;2228;48.140;11.488;2022-10-31T00:34:26;9.70;1.00
4431;DHT22;2228;48.140;11.488;2022-10-31T00:36:53;9.70;1.00
4431;DHT22;2228;48.140;11.488;2022-10-31T00:39:20;9.80;1.00
4431;DHT22;2228;48.140;11.488;2022-10-31T00:41:47;9.80;1.00
4431;DHT22;2228;48.140;11.488;2022-10-31T00:44:15;9.80;1.00
4431;DHT22;2228;48.140;11.488;2022-10-31T00:46:42;9.80;1.00
4431;DHT22;2228;48.140;11.488;2022-10-31T00:49:09;9.80;1.00
4431;DHT22;2228;48.140;11.488;2022-10-31T00:51:35;9.70;1.00
4431;DHT22;2228;48.140;11.488;2022-10-31T00:54:02;9.80;1.00
4431;DHT22;2228;48.140;11.488;2022-10-31T00:56:29;9.80;99.90
4431;DHT22;2228;48.140;11.488;2022-10-31T00:58:56;9.80;1.00
4431;DHT22;2228;48.140;11.488;2022-10-31T01:01:24;10.00;1.00
4431;DHT22;2228;48.140;11.488;2022-10-31T01:03:51;9.90;99.90
4431;DHT22;2228;48.140;11.488;2022-10-31T01:06:18;9.80;99.90
4431;DHT22;2228;48.140;11.488;2022-10-31T01:08:46;9.70;1.00
4431;DHT22;2228;48.140;11.488;2022-10-31T01:11:15;9.60;1.00
4431;DHT22;2228;48.140;11.488;2022-10-31T01:13:43;9.60;1.00
4431;DHT22;2228;48.140;11.488;2022-10-31T01:16:12;9.70;1.00
4431;DHT22;2228;48.140;11.488;2022-10-31T01:18:40;9.70;1.00
4431;DHT22;2228;48.140;11.488;2022-10-31T01:21:09;9.80;1.00
4431;DHT22;2228;48.140;11.488;2022-10-31T01:23:36;9.70;99.90
4431;DHT22;2228;48.140;11.488;2022-10-31T01:26:06;9.60;99.90
4431;DHT22;2228;48.140;11.488;2022-10-31T01:28:34;9.60;1.00
4431;DHT22;2228;48.140;11.488;2022-10-31T01:31:02;9.60;1.00
4431;DHT22;2228;48.140;11.488;2022-10-31T01:33:29;9.60;99.90
4431;DHT22;2228;48.140;11.488;2022-10-31T01:35:57;9.50;99.90
4431;DHT22;2228;48.140;11.488;2022-10-31T01:38:24;9.50;1.00
4431;DHT22;2228;48.140;11.488;2022-10-31T01:40:51;9.50;99.90
4431;DHT22;2228;48.140;11.488;2022-10-31T01:43:19;9.50;99.90
4431;DHT22;2228;48.140;11.488;2022-10-31T01:45:51;9.50;99.90
4431;DHT22;2228;48.140;11.488;2022-10-31T01:48:20;9.60;99.90
4431;DHT22;2228;48.140;11.488;2022-10-31T01:50:49;9.50;99.90
4431;DHT22;2228;48.140;11.488;2022-10-31T01:53:18;9.50;99.90
4431;DHT22;2228;48.140;11.488;2022-10-31T01:55:45;9.40;99.90
4431;DHT22;2228;48.140;11.488;2022-10-31T01:58:14;9.40;99.90
4431;DHT22;2228;48.140;11.488;2022-10-31T02:00:45;9.40;1.00
4431;DHT22;2228;48.140;11.488;2022-10-31T02:03:13;9.50;1.00
4431;DHT22;2228;48.140;11.488;2022-10-31T02:05:41;9.40;99.90
4431;DHT22;2228;48.140;11.488;2022-10-31T02:08:13;9.30;99.90
4431;DHT22;2228;48.140;11.488;2022-10-31T02:10:44;9.40;99.90
4431;DHT22;2228;48.140;11.488;2022-10-31T02:13:11;9.40;99.90
4431;DHT22;2228;48.140;11.488;2022-10-31T02:15:40;9.30;99.90
4431;DHT22;2228;48.140;11.488;2022-10-31T02:18:08;9.30;99.90
4431;DHT22;2228;48.140;11.488;2022-10-31T02:20:42;9.20;99.90
4431;DHT22;2228;48.140;11.488;2022-10-31T02:23:26;9.30;99.90
4431;DHT22;2228;48.140;11.488;2022-10-31T02:26:17;9.30;99.90
4431;DHT22;2228;48.140;11.488;2022-10-31T02:31:58;9.30;99.90
4431;DHT22;2228;48.140;11.488;2022-10-31T02:34:32;9.20;99.90
4431;DHT22;2228;48.140;11.488;2022-10-31T02:37:06;9.30;99.90
4431;DHT22;2228;48.140;11.488;2022-10-31T02:39:38;9.20;99.90
4431;DHT22;2228;48.140;11.488;2022-10-31T02:42:14;9.20;99.90
4431;DHT22;2228;48.140;11.488;2022-10-31T02:44:48;9.20;99.90
4431;DHT22;2228;48.140;11.488;2022-10-31T02:47:20;9.20;99.90
4431;DHT22;2228;48.140;11.488;2022-10-31T02:49:53;9.20;99.90
4431;DHT22;2228;48.140;11.488;2022-10-31T02:52:24;9.10;99.90
4431;DHT22;2228;48.140;11.488;2022-10-31T02:54:52;9.00;99.90
4431;DHT22;2228;48.140;11.488;2022-10-31T02:57:24;8.90;99.90
4431;DHT22;2228;48.140;11.488;2022-10-31T02:59:55;8.90;1.00
4431;DHT22;2228;48.140;11.488;2022-10-31T03:02:42;9.00;1.00
4431;DHT22;2228;48.140;11.488;2022-10-31T03:05:37;9.00;99.90
4431;DHT22;2228;48.140;11.488;2022-10-31T03:08:12;9.00;99.90
4431;DHT22;2228;48.140;11.488;2022-10-31T03:10:43;9.00;99.90
4431;DHT22;2228;48.140;11.488;2022-10-31T03:13:19;9.10;99.90
4431;DHT22;2228;48.140;11.488;2022-10-31T03:15:50;9.00;99.90
4431;DHT22;2228;48.140;11.488;2022-10-31T03:18:24;9.10;1.00
4431;DHT22;2228;48.140;11.488;2022-10-31T03:20:55;9.20;99.90
4431;DHT22;2228;48.140;11.488;2022-10-31T03:23:28;9.10;99.90
4431;DHT22;2228;48.140;11.488;2022-10-31T03:25:57;9.00;99.90
4431;DHT22;2228;48.140;11.488;2022-10-31T03:28:30;9.00;99.90
4431;DHT22;2228;48.140;11.488;2022-10-31T03:30:58;9.00;99.90
4431;DHT22;2228;48.140;11.488;2022-10-31T03:33:32;9.00;99.90
4431;DHT22;2228;48.140;11.488;2022-10-31T03:36:05;9.00;99.90
4431;DHT22;2228;48.140;11.488;2022-10-31T03:38:35;8.90;99.90
4431;DHT22;2228;48.140;11.488;2022-10-31T03:41:05;8.80;99.90
4431;DHT22;2228;48.140;11.488;2022-10-31T03:43:40;8.90;1.00
4431;DHT22;2228;48.140;11.488;2022-10-31T03:46:09;8.90;99.90
4431;DHT22;2228;48.140;11.488;2022-10-31T03:48:38;8.90;99.90
4431;DHT22;2228;48.140;11.488;2022-10-31T03:51:10;8.70;99.90
4431;DHT22;2228;48.140;11.488;2022-10-31T03:53:45;8.70;99.90
4431;DHT22;2228;48.140;11.488;2022-10-31T03:56:21;8.70;99.90
4431;DHT22;2228;48.140;11.488;2022-10-31T03:58:54;8.70;1.00
4431;DHT22;2228;48.140;11.488;2022-10-31T04:01:24;8.80;1.00
4431;DHT22;2228;48.140;11.488;2022-10-31T04:03:54;8.90;99.90
4431;DHT22;2228;48.140;11.488;2022-10-31T04:06:22;8.70;99.90
4431;DHT22;2228;48.140;11.488;2022-10-31T04:08:52;8.70;99.90
4431;DHT22;2228;48.140;11.488;2022-10-31T04:11:35;8.70;99.90
4431;DHT22;2228;48.140;11.488;2022-10-31T04:14:04;8.70;99.90
4431;DHT22;2228;48.140;11.488;2022-10-31T04:16:32;8.70;99.90
4431;DHT22;2228;48.140;11.488;2022-10-31T04:19:00;8.70;99.90
4431;DHT22;2228;48.140;11.488;2022-10-31T04:21:28;8.70;99.90
4431;DHT22;2228;48.140;11.488;2022-10-31T04:23:55;8.60;99.90
4431;DHT22;2228;48.140;11.488;2022-10-31T04:26:22;8.60;99.90
4431;DHT22;2228;48.140;11.488;2022-10-31T04:28:49;8.50;99.90
4431;DHT22;2228;48.140;11.488;2022-10-31T04:31:16;8.50;99.90
4431;DHT22;2228;48.140;11.488;2022-10-31T04:33:43;8.50;99.90
4431;DHT22;2228;48.140;11.488;2022-10-31T04:36:11;8.50;1.00
4431;DHT22;2228;48.140;11.488;2022-10-31T04:38:38;8.40;99.90
4431;DHT22;2228;48.140;11.488;2022-10-31T04:41:05;8.40;1.00
4431;DHT22;2228;48.140;11.488;2022-10-31T04:43:32;8.40;1.00
4431;DHT22;2228;48.140;11.488;2022-10-31T04:45:58;8.50;1.00
4431;DHT22;2228;48.140;11.488;2022-10-31T04:48:27;8.50;99.90
4431;DHT22;2228;48.140;11.488;2022-10-31T04:50:58;8.40;1.00
4431;DHT22;2228;48.140;11.488;2022-10-31T04:53:27;8.50;1.00
4431;DHT22;2228;48.140;11.488;2022-10-31T04:55:54;8.50;99.90
4431;DHT22;2228;48.140;11.488;2022-10-31T04:58:20;8.50;99.90
4431;DHT22;2228;48.140;11.488;2022-10-31T05:00:47;8.50;99.90
4431;DHT22;2228;48.140;11.488;2022-10-31T05:03:17;8.50;99.90
4431;DHT22;2228;48.140;11.488;2022-10-31T05:05:44;8.50;99.90
4431;DHT22;2228;48.140;11.488;2022-10-31T05:08:11;8.50;99.90
4431;DHT22;2228;48.140;11.488;2022-10-31T05:10:39;8.50;1.00
4431;DHT22;2228;48.140;11.488;2022-10-31T05:13:06;8.50;99.90
4431;DHT22;2228;48.140;11.488;2022-10-31T05:15:33;8.50;99.90
4431;DHT22;2228;48.140;11.488;2022-10-31T05:18:00;8.50;99.90
4431;DHT22;2228;48.140;11.488;2022-10-31T05:20:29;8.40;99.90
4431;DHT22;2228;48.140;11.488;2022-10-31T05:22:57;8.40;99.90
4431;DHT22;2228;48.140;11.488;2022-10-31T05:25:26;8.40;99.90
4431;DHT22;2228;48.140;11.488;2022-10-31T05:27:55;8.30;99.90
4431;DHT22;2228;48.140;11.488;2022-10-31T05:30:25;8.20;99.90
4431;DHT22;2228;48.140;11.488;2022-10-31T05:32:52;8.20;99.90
4431;DHT22;2228;48.140;11.488;2022-10-31T05:35:21;8.20;99.90
4431;DHT22;2228;48.140;11.488;2022-10-31T05:37:48;8.20;99.90
4431;DHT22;2228;48.140;11.488;2022-10-31T05:40:16;8.20;99.90
4431;DHT22;2228;48.140;11.488;2022-10-31T05:42:43;8.20;99.90
4431;DHT22;2228;48.140;11.488;2022-10-31T05:45:14;8.10;99.90
4431;DHT22;2228;48.140;11.488;2022-10-31T05:47:41;8.20;99.90
4431;DHT22;2228;48.140;11.488;2022-10-31T05:50:09;8.30;99.90
4431;DHT22;2228;48.140;11.488;2022-10-31T05:52:36;8.20;99.90
4431;DHT22;2228;48.140;11.488;2022-10-31T05:55:03;8.20;1.00
4431;DHT22;2228;48.140;11.488;2022-10-31T05:57:32;8.20;99.90
4431;DHT22;2228;48.140;11.488;2022-10-31T05:59:59;8.20;99.90
4431;DHT22;2228;48.140;11.488;2022-10-31T06:02:28;8.20;99.90
4431;DHT22;2228;48.140;11.488;2022-10-31T06:04:59;8.20;99.90
4431;DHT22;2228;48.140;11.488;2022-10-31T06:07:27;8.20;99.90
4431;DHT22;2228;48.140;11.488;2022-10-31T06:09:58;8.20;99.90
4431;DHT22;2228;48.140;11.488;2022-10-31T06:12:25;8.30;99.90
4431;DHT22;2228;48.140;11.488;2022-10-31T06:14:51;8.30;99.90
4431;DHT22;2228;48.140;11.488;2022-10-31T06:17:18;8.30;99.90
4431;DHT22;2228;48.140;11.488;2022-10-31T06:19:46;8.40;99.90
4431;DHT22;2228;48.140;11.488;2022-10-31T06:22:13;8.30;99.90
4431;DHT22;2228;48.140;11.488;2022-10-31T06:24:40;8.30;99.90
4431;DHT22;2228;48.140;11.488;2022-10-31T06:27:07;8.30;1.00
4431;DHT22;2228;48.140;11.488;2022-10-31T06:29:34;8.40;1.00
4431;DHT22;2228;48.140;11.488;2022-10-31T06:32:01;8.50;1.00
4431;DHT22;2228;48.140;11.488;2022-10-31T06:34:27;8.60;1.00
4431;DHT22;2228;48.140;11.488;2022-10-31T06:36:56;8.70;1.00
4431;DHT22;2228;48.140;11.488;2022-10-31T06:39:22;8.80;1.00
4431;DHT22;2228;48.140;11.488;2022-10-31T06:41:49;8.80;1.00
4431;DHT22;2228;48.140;11.488;2022-10-31T06:44:16;8.90;1.00
4431;DHT22;2228;48.140;11.488;2022-10-31T06:46:43;9.00;1.00
4431;DHT22;2228;48.140;11.488;2022-10-31T06:49:12;9.10;1.00
4431;DHT22;2228;48.140;11.488;2022-10-31T06:51:39;9.20;1.00
4431;DHT22;2228;48.140;11.488;2022-10-31T06:54:07;9.20;1.00
4431;DHT22;2228;48.140;11.488;2022-10-31T06:56:34;9.20;1.00
4431;DHT22;2228;48.140;11.488;2022-10-31T06:59:01;9.30;1.00
4431;DHT22;2228;48.140;11.488;2022-10-31T07:01:27;9.40;1.00
4431;DHT22;2228;48.140;11.488;2022-10-31T07:03:54;9.50;1.00
4431;DHT22;2228;48.140;11.488;2022-10-31T07:06:21;9.60;1.00
4431;DHT22;2228;48.140;11.488;2022-10-31T07:08:48;9.70;1.00
4431;DHT22;2228;48.140;11.488;2022-10-31T07:11:16;9.80;1.00
4431;DHT22;2228;48.140;11.488;2022-10-31T07:13:43;9.90;1.00
4431;DHT22;2228;48.140;11.488;2022-10-31T07:16:10;10.10;1.00
4431;DHT22;2228;48.140;11.488;2022-10-31T07:18:39;10.20;1.00
4431;DHT22;2228;48.140;11.488;2022-10-31T07:21:06;10.40;1.00
4431;DHT22;2228;48.140;11.488;2022-10-31T07:23:33;10.60;1.00
4431;DHT22;2228;48.140;11.488;2022-10-31T07:26:00;10.80;1.00
4431;DHT22;2228;48.140;11.488;2022-10-31T07:28:28;11.00;1.00
4431;DHT22;2228;48.140;11.488;2022-10-31T07:30:56;11.20;1.00
4431;DHT22;2228;48.140;11.488;2022-10-31T07:33:24;11.40;1.00
4431;DHT22;2228;48.140;11.488;2022-10-31T07:35:52;11.50;1.00
4431;DHT22;2228;48.140;11.488;2022-10-31T07:38:19;11.60;1.00
4431;DHT22;2228;48.140;11.488;2022-10-31T07:40:50;11.80;1.00
4431;DHT22;2228;48.140;11.488;2022-10-31T07:43:17;11.90;1.00
4431;DHT22;2228;48.140;11.488;2022-10-31T07:45:49;12.10;1.00
4431;DHT22;2228;48.140;11.488;2022-10-31T07:48:16;12.20;1.00
4431;DHT22;2228;48.140;11.488;2022-10-31T07:50:42;12.30;1.00
4431;DHT22;2228;48.140;11.488;2022-10-31T07:53:11;12.40;1.00
4431;DHT22;2228;48.140;11.488;2022-10-31T07:55:38;12.50;1.00
4431;DHT22;2228;48.140;11.488;2022-10-31T07:58:06;12.80;99.90
4431;DHT22;2228;48.140;11.488;2022-10-31T08:00:35;12.90;99.90
4431;DHT22;2228;48.140;11.488;2022-10-31T08:03:05;13.00;1.00
4431;DHT22;2228;48.140;11.488;2022-10-31T08:05:33;13.20;99.90
4431;DHT22;2228;48.140;11.488;2022-10-31T08:08:00;13.30;1.00
4431;DHT22;2228;48.140;11.488;2022-10-31T08:10:28;13.40;1.00
4431;DHT22;2228;48.140;11.488;2022-10-31T08:12:56;13.60;1.00
4431;DHT22;2228;48.140;11.488;2022-10-31T08:15:23;13.80;1.00
4431;DHT22;2228;48.140;11.488;2022-10-31T08:17:50;14.10;99.90
4431;DHT22;2228;48.140;11.488;2022-10-31T08:20:19;14.30;1.00
4431;DHT22;2228;48.140;11.488;2022-10-31T08:22:53;14.50;1.00
4431;DHT22;2228;48.140;11.488;2022-10-31T08:25:20;14.70;99.90
4431;DHT22;2228;48.140;11.488;2022-10-31T08:27:49;14.80;99.90
4431;DHT22;2228;48.140;11.488;2022-10-31T08:30:17;15.00;99.90
4431;DHT22;2228;48.140;11.488;2022-10-31T08:32:44;15.20;1.00
4431;DHT22;2228;48.140;11.488;2022-10-31T08:35:11;15.40;1.00
4431;DHT22;2228;48.140;11.488;2022-10-31T08:37:39;15.70;68.80
4431;DHT22;2228;48.140;11.488;2022-10-31T08:40:06;16.00;99.90
4431;DHT22;2228;48.140;11.488;2022-10-31T08:42:34;16.30;1.00
4431;DHT22;2228;48.140;11.488;2022-10-31T08:45:00;16.60;1.00
4431;DHT22;2228;48.140;11.488;2022-10-31T08:47:27;16.80;1.00
4431;DHT22;2228;48.140;11.488;2022-10-31T08:49:54;17.10;1.00
4431;DHT22;2228;48.140;11.488;2022-10-31T08:52:23;17.50;1.00
4431;DHT22;2228;48.140;11.488;2022-10-31T08:54:52;17.80;1.00
4431;DHT22;2228;48.140;11.488;2022-10-31T08:57:19;18.20;99.90
4431;DHT22;2228;48.140;11.488;2022-10-31T08:59:45;18.40;99.90
4431;DHT22;2228;48.140;11.488;2022-10-31T09:02:12;18.70;99.90
4431;DHT22;2228;48.140;11.488;2022-10-31T09:04:39;19.00;97.60
4431;DHT22;2228;48.140;11.488;2022-10-31T09:07:06;19.20;99.90
4431;DHT22;2228;48.140;11.488;2022-10-31T09:09:33;19.60;99.90
4431;DHT22;2228;48.140;11.488;2022-10-31T09:12:01;19.90;94.30
4431;DHT22;2228;48.140;11.488;2022-10-31T09:14:28;20.10;99.90
4431;DHT22;2228;48.140;11.488;2022-10-31T09:16:55;20.30;97.00
4431;DHT22;2228;48.140;11.488;2022-10-31T09:19:21;20.70;34.90
4431;DHT22;2228;48.140;11.488;2022-10-31T09:21:52;21.00;10.90
4431;DHT22;2228;48.140;11.488;2022-10-31T09:24:18;21.30;25.30
4431;DHT22;2228;48.140;11.488;2022-10-31T09:26:45;21.60;51.30
4431;DHT22;2228;48.140;11.488;2022-10-31T09:29:14;21.80;51.40
4431;DHT22;2228;48.140;11.488;2022-10-31T09:31:40;21.90;28.00
4431;DHT22;2228;48.140;11.488;2022-10-31T09:34:07;22.10;23.90
4431;DHT22;2228;48.140;11.488;2022-10-31T09:36:34;22.40;33.60
4431;DHT22;2228;48.140;11.488;2022-10-31T09:39:01;22.60;29.20
4431;DHT22;2228;48.140;11.488;2022-10-31T09:41:37;22.80;12.50
4431;DHT22;2228;48.140;11.488;2022-10-31T09:44:18;22.80;7.00
4431;DHT22;2228;48.140;11.488;2022-10-31T09:46:52;22.80;1.00
4431;DHT22;2228;48.140;11.488;2022-10-31T09:49:36;22.70;1.00
4431;DHT22;2228;48.140;11.488;2022-10-31T09:52:11;22.50;1.00
4431;DHT22;2228;48.140;11.488;2022-10-31T09:54:44;22.50;1.00
4431;DHT22;2228;48.140;11.488;2022-10-31T09:57:14;22.40;1.00
4431;DHT22;2228;48.140;11.488;2022-10-31T09:59:44;22.30;1.00
4431;DHT22;2228;48.140;11.488;2022-10-31T10:02:16;22.30;1.00
4431;DHT22;2228;48.140;11.488;2022-10-31T10:04:48;22.40;1.00
4431;DHT22;2228;48.140;11.488;2022-10-31T10:07:24;22.60;1.00
4431;DHT22;2228;48.140;11.488;2022-10-31T10:09:53;22.80;1.00
4431;DHT22;2228;48.140;11.488;2022-10-31T10:12:41;23.00;1.00
4431;DHT22;2228;48.140;11.488;2022-10-31T10:15:32;23.00;1.00
4431;DHT22;2228;48.140;11.488;2022-10-31T10:18:18;23.20;1.00
4431;DHT22;2228;48.140;11.488;2022-10-31T10:20:59;23.10;1.00
4431;DHT22;2228;48.140;11.488;2022-10-31T10:23:43;23.00;1.00
4431;DHT22;2228;48.140;11.488;2022-10-31T10:26:17;23.20;1.00
4431;DHT22;2228;48.140;11.488;2022-10-31T10:28:47;23.20;1.00
4431;DHT22;2228;48.140;11.488;2022-10-31T10:31:21;23.50;1.00
4431;DHT22;2228;48.140;11.488;2022-10-31T10:34:01;23.70;1.00
4431;DHT22;2228;48.140;11.488;2022-10-31T10:36:36;23.90;1.00
4431;DHT22;2228;48.140;11.488;2022-10-31T10:39:07;23.90;1.00
4431;DHT22;2228;48.140;11.488;2022-10-31T10:41:36;23.90;1.00
4431;DHT22;2228;48.140;11.488;2022-10-31T10:44:07;24.00;1.00
4431;DHT22;2228;48.140;11.488;2022-10-31T10:46:41;24.10;1.00
4431;DHT22;2228;48.140;11.488;2022-10-31T10:49:32;24.20;1.00
4431;DHT22;2228;48.140;11.488;2022-10-31T10:52:07;24.20;1.00
4431;DHT22;2228;48.140;11.488;2022-10-31T10:54:45;24.20;1.00
4431;DHT22;2228;48.140;11.488;2022-10-31T10:57:22;24.20;1.00
4431;DHT22;2228;48.140;11.488;2022-10-31T10:59:52;24.10;1.00
4431;DHT22;2228;48.140;11.488;2022-10-31T11:02:23;24.10;1.00
4431;DHT22;2228;48.140;11.488;2022-10-31T11:04:52;24.10;1.00
4431;DHT22;2228;48.140;11.488;2022-10-31T11:07:20;24.20;1.00
4431;DHT22;2228;48.140;11.488;2022-10-31T11:09:48;24.30;1.00
4431;DHT22;2228;48.140;11.488;2022-10-31T11:12:19;24.30;1.00
4431;DHT22;2228;48.140;11.488;2022-10-31T11:14:50;24.40;1.00
4431;DHT22;2228;48.140;11.488;2022-10-31T11:17:25;24.30;1.00
4431;DHT22;2228;48.140;11.488;2022-10-31T11:20:05;24.40;1.00
4431;DHT22;2228;48.140;11.488;2022-10-31T11:22:32;24.60;1.00
4431;DHT22;2228;48.140;11.488;2022-10-31T11:24:59;25.00;1.00
4431;DHT22;2228;48.140;11.488;2022-10-31T11:27:27;25.30;1.00
4431;DHT22;2228;48.140;11.488;2022-10-31T11:30:05;25.70;1.00
4431;DHT22;2228;48.140;11.488;2022-10-31T11:32:34;25.80;1.00
4431;DHT22;2228;48.140;11.488;2022-10-31T11:35:03;25.90;1.00
4431;DHT22;2228;48.140;11.488;2022-10-31T11:37:41;25.90;1.00
4431;DHT22;2228;48.140;11.488;2022-10-31T11:40:17;25.90;1.00
4431;DHT22;2228;48.140;11.488;2022-10-31T11:42:45;25.80;1.00
4431;DHT22;2228;48.140;11.488;2022-10-31T11:45:15;25.90;1.00
4431;DHT22;2228;48.140;11.488;2022-10-31T11:47:46;25.80;1.00
4431;DHT22;2228;48.140;11.488;2022-10-31T11:50:19;26.10;1.00
4431;DHT22;2228;48.140;11.488;2022-10-31T11:52:46;26.50;1.00
4431;DHT22;2228;48.140;11.488;2022-10-31T11:55:16;26.90;1.00
4431;DHT22;2228;48.140;11.488;2022-10-31T11:57:46;27.30;1.00
4431;DHT22;2228;48.140;11.488;2022-10-31T12:00:21;27.30;1.00
4431;DHT22;2228;48.140;11.488;2022-10-31T12:02:50;27.20;1.00
4431;DHT22;2228;48.140;11.488;2022-10-31T12:05:19;26.80;1.00
4431;DHT22;2228;48.140;11.488;2022-10-31T12:07:48;26.20;1.00
4431;DHT22;2228;48.140;11.488;2022-10-31T12:10:15;25.60;1.00
4431;DHT22;2228;48.140;11.488;2022-10-31T12:12:55;25.10;1.00
4431;DHT22;2228;48.140;11.488;2022-10-31T12:15:31;24.60;1.00
4431;DHT22;2228;48.140;11.488;2022-10-31T12:18:24;24.20;1.00
4431;DHT22;2228;48.140;11.488;2022-10-31T12:21:07;23.90;1.00
4431;DHT22;2228;48.140;11.488;2022-10-31T12:23:42;23.70;1.00
4431;DHT22;2228;48.140;11.488;2022-10-31T12:26:17;23.70;1.00
4431;DHT22;2228;48.140;11.488;2022-10-31T12:29:03;23.80;1.00
4431;DHT22;2228;48.140;11.488;2022-10-31T12:31:43;23.80;1.00
4431;DHT22;2228;48.140;11.488;2022-10-31T12:34:40;23.90;1.00
4431;DHT22;2228;48.140;11.488;2022-10-31T12:37:19;23.80;1.00
4431;DHT22;2228;48.140;11.488;2022-10-31T12:39:54;23.80;1.00
4431;DHT22;2228;48.140;11.488;2022-10-31T12:42:40;23.80;1.00
4431;DHT22;2228;48.140;11.488;2022-10-31T12:45:23;24.00;1.00
4431;DHT22;2228;48.140;11.488;2022-10-31T12:48:16;24.10;1.00
4431;DHT22;2228;48.140;11.488;2022-10-31T12:50:52;24.30;1.00
4431;DHT22;2228;48.140;11.488;2022-10-31T12:53:32;24.40;1.00
4431;DHT22;2228;48.140;11.488;2022-10-31T12:56:16;24.60;1.00
4431;DHT22;2228;48.140;11.488;2022-10-31T12:58:51;25.10;1.00
4431;DHT22;2228;48.140;11.488;2022-10-31T13:01:23;25.50;1.00
4431;DHT22;2228;48.140;11.488;2022-10-31T13:03:55;26.10;1.00
4431;DHT22;2228;48.140;11.488;2022-10-31T13:06:29;26.90;1.00
4431;DHT22;2228;48.140;11.488;2022-10-31T13:09:00;27.70;1.00
4431;DHT22;2228;48.140;11.488;2022-10-31T13:11:36;28.00;1.00
4431;DHT22;2228;48.140;11.488;2022-10-31T13:14:09;28.10;1.00
4431;DHT22;2228;48.140;11.488;2022-10-31T13:16:41;27.60;1.00
4431;DHT22;2228;48.140;11.488;2022-10-31T13:19:13;27.30;1.00
4431;DHT22;2228;48.140;11.488;2022-10-31T13:21:55;26.90;1.00
4431;DHT22;2228;48.140;11.488;2022-10-31T13:24:27;26.40;1.00
4431;DHT22;2228;48.140;11.488;2022-10-31T13:26:58;26.00;1.00
4431;DHT22;2228;48.140;11.488;2022-10-31T13:29:30;25.60;1.00
4431;DHT22;2228;48.140;11.488;2022-10-31T13:32:00;25.30;1.00
4431;DHT22;2228;48.140;11.488;2022-10-31T13:34:33;25.10;1.00
4431;DHT22;2228;48.140;11.488;2022-10-31T13:37:12;24.80;1.00
4431;DHT22;2228;48.140;11.488;2022-10-31T13:39:50;24.50;1.00
4431;DHT22;2228;48.140;11.488;2022-10-31T13:42:23;24.30;1.00
4431;DHT22;2228;48.140;11.488;2022-10-31T13:44:52;24.10;1.00
4431;DHT22;2228;48.140;11.488;2022-10-31T13:47:24;23.90;1.00
4431;DHT22;2228;48.140;11.488;2022-10-31T13:49:51;23.80;1.00
4431;DHT22;2228;48.140;11.488;2022-10-31T13:52:31;23.50;1.00
4431;DHT22;2228;48.140;11.488;2022-10-31T13:54:58;23.30;1.00
4431;DHT22;2228;48.140;11.488;2022-10-31T13:57:31;23.10;1.00
4431;DHT22;2228;48.140;11.488;2022-10-31T14:00:03;23.00;1.00
4431;DHT22;2228;48.140;11.488;2022-10-31T14:02:33;23.00;1.00
4431;DHT22;2228;48.140;11.488;2022-10-31T14:05:03;22.80;1.00
4431;DHT22;2228;48.140;11.488;2022-10-31T14:07:32;22.80;1.00
4431;DHT22;2228;48.140;11.488;2022-10-31T14:10:02;22.90;1.00
4431;DHT22;2228;48.140;11.488;2022-10-31T14:12:34;23.00;1.00
4431;DHT22;2228;48.140;11.488;2022-10-31T14:15:11;23.30;1.00
4431;DHT22;2228;48.140;11.488;2022-10-31T14:17:45;24.30;1.00
4431;DHT22;2228;48.140;11.488;2022-10-31T14:20:31;25.20;1.00
4431;DHT22;2228;48.140;11.488;2022-10-31T14:23:10;25.60;1.00
4431;DHT22;2228;48.140;11.488;2022-10-31T14:25:38;25.80;1.00
4431;DHT22;2228;48.140;11.488;2022-10-31T14:28:18;25.80;1.00
4431;DHT22;2228;48.140;11.488;2022-10-31T14:30:52;25.60;1.00
4431;DHT22;2228;48.140;11.488;2022-10-31T14:33:19;25.20;1.00
4431;DHT22;2228;48.140;11.488;2022-10-31T14:35:53;24.90;1.00
4431;DHT22;2228;48.140;11.488;2022-10-31T14:38:46;24.40;1.00
4431;DHT22;2228;48.140;11.488;2022-10-31T14:41:25;24.00;1.00
4431;DHT22;2228;48.140;11.488;2022-10-31T14:44:19;23.60;1.00
4431;DHT22;2228;48.140;11.488;2022-10-31T14:46:55;23.20;1.00
4431;DHT22;2228;48.140;11.488;2022-10-31T14:49:49;23.00;1.00
4431;DHT22;2228;48.140;11.488;2022-10-31T14:52:18;22.90;1.00
4431;DHT22;2228;48.140;11.488;2022-10-31T14:54:53;22.80;1.00
4431;DHT22;2228;48.140;11.488;2022-10-31T14:57:22;22.80;1.00
4431;DHT22;2228;48.140;11.488;2022-10-31T14:59:53;22.60;1.00
4431;DHT22;2228;48.140;11.488;2022-10-31T15:02:23;22.40;1.00
4431;DHT22;2228;48.140;11.488;2022-10-31T15:04:52;22.10;1.00
4431;DHT22;2228;48.140;11.488;2022-10-31T15:07:22;21.90;1.00
4431;DHT22;2228;48.140;11.488;2022-10-31T15:09:57;21.70;1.00
4431;DHT22;2228;48.140;11.488;2022-10-31T15:12:26;21.60;1.00
4431;DHT22;2228;48.140;11.488;2022-10-31T15:14:53;21.60;1.00
4431;DHT22;2228;48.140;11.488;2022-10-31T15:17:22;21.60;1.00
4431;DHT22;2228;48.140;11.488;2022-10-31T15:19:50;21.50;1.00
4431;DHT22;2228;48.140;11.488;2022-10-31T15:22:19;21.40;1.00
4431;DHT22;2228;48.140;11.488;2022-10-31T15:24:47;21.30;1.00
4431;DHT22;2228;48.140;11.488;2022-10-31T15:27:16;21.20;1.00
4431;DHT22;2228;48.140;11.488;2022-10-31T15:29:51;21.10;1.00
4431;DHT22;2228;48.140;11.488;2022-10-31T15:32:20;21.00;1.00
4431;DHT22;2228;48.140;11.488;2022-10-31T15:34:49;20.90;4.50
4431;DHT22;2228;48.140;11.488;2022-10-31T15:37:18;20.70;12.30
4431;DHT22;2228;48.140;11.488;2022-10-31T15:39:46;20.50;21.30
4431;DHT22;2228;48.140;11.488;2022-10-31T15:42:19;20.30;29.30
4431;DHT22;2228;48.140;11.488;2022-10-31T15:44:49;20.10;50.50
4431;DHT22;2228;48.140;11.488;2022-10-31T15:47:19;19.90;61.10
4431;DHT22;2228;48.140;11.488;2022-10-31T15:49:49;19.70;84.30
4431;DHT22;2228;48.140;11.488;2022-10-31T15:52:27;19.60;94.60
4431;DHT22;2228;48.140;11.488;2022-10-31T15:55:00;19.40;99.90
4431;DHT22;2228;48.140;11.488;2022-10-31T15:57:28;19.40;99.90
4431;DHT22;2228;48.140;11.488;2022-10-31T15:59:56;19.20;99.90
4431;DHT22;2228;48.140;11.488;2022-10-31T16:02:25;19.00;99.90
4431;DHT22;2228;48.140;11.488;2022-10-31T16:04:54;18.80;99.90
4431;DHT22;2228;48.140;11.488;2022-10-31T16:07:22;18.50;99.90
4431;DHT22;2228;48.140;11.488;2022-10-31T16:09:51;18.40;99.90
4431;DHT22;2228;48.140;11.488;2022-10-31T16:12:19;18.30;99.90
4431;DHT22;2228;48.140;11.488;2022-10-31T16:14:47;18.00;99.90
4431;DHT22;2228;48.140;11.488;2022-10-31T16:17:16;17.80;99.90
4431;DHT22;2228;48.140;11.488;2022-10-31T16:19:57;17.60;99.90
4431;DHT22;2228;48.140;11.488;2022-10-31T16:22:27;17.50;99.90
4431;DHT22;2228;48.140;11.488;2022-10-31T16:24:59;17.50;99.90
4431;DHT22;2228;48.140;11.488;2022-10-31T16:27:30;17.20;1.00